createdAt,value
2017-02-16T00:00:06.356Z,22.76
2017-02-16T00:00:46.846Z,22.79
2017-02-16T00:01:27.342Z,22.84
2017-02-16T00:02:07.835Z,22.73
2017-02-16T00:02:48.320Z,22.81
2017-02-16T00:03:28.832Z,22.64
2017-02-16T00:04:09.323Z,22.79
2017-02-16T00:04:49.840Z,22.76
2017-02-16T00:05:30.336Z,22.78
2017-02-16T00:06:10.831Z,22.66
2017-02-16T00:06:51.336Z,22.76
2017-02-16T00:07:31.832Z,22.73
2017-02-16T00:08:12.323Z,22.7
2017-02-16T00:08:52.835Z,22.73
2017-02-16T00:09:33.332Z,22.75
2017-02-16T00:10:13.822Z,22.69
2017-02-16T00:10:54.330Z,22.66
2017-02-16T00:11:34.825Z,22.73
2017-02-16T00:12:15.319Z,22.67
2017-02-16T00:12:55.828Z,22.7
2017-02-16T00:13:36.316Z,22.76
2017-02-16T00:14:16.827Z,22.73
2017-02-16T00:14:57.310Z,22.71
2017-02-16T00:15:37.799Z,22.7
2017-02-16T00:16:18.297Z,22.67
2017-02-16T00:16:58.801Z,22.69
2017-02-16T00:17:39.289Z,22.73
2017-02-16T00:18:19.796Z,22.79
2017-02-16T00:19:00.278Z,22.79
2017-02-16T00:19:40.772Z,22.66
2017-02-16T00:20:21.268Z,22.69
2017-02-16T00:21:01.758Z,22.66
2017-02-16T00:21:42.261Z,22.73
2017-02-16T00:22:22.760Z,22.71
2017-02-16T00:23:03.266Z,22.73
2017-02-16T00:23:43.758Z,22.73
2017-02-16T00:24:24.260Z,22.76
2017-02-16T00:25:04.785Z,22.69
2017-02-16T00:25:45.270Z,22.75
2017-02-16T00:26:25.784Z,22.71
2017-02-16T00:27:06.265Z,22.69
2017-02-16T00:27:46.747Z,22.69
2017-02-16T00:28:27.234Z,22.67
2017-02-16T00:29:07.731Z,22.69
2017-02-16T00:29:48.229Z,22.73
2017-02-16T00:30:28.729Z,22.78
2017-02-16T00:31:09.229Z,22.75
2017-02-16T00:31:49.719Z,22.69
2017-02-16T00:32:30.220Z,22.71
2017-02-16T00:33:10.694Z,22.73
2017-02-16T00:33:51.195Z,22.73
2017-02-16T00:34:31.688Z,22.67
2017-02-16T00:35:12.189Z,22.7
2017-02-16T00:35:52.679Z,22.67
2017-02-16T00:36:33.297Z,22.71
2017-02-16T00:37:13.809Z,22.73
2017-02-16T00:37:54.307Z,22.69
2017-02-16T00:38:34.803Z,22.71
2017-02-16T00:39:15.296Z,22.69
2017-02-16T00:39:55.802Z,22.67
2017-02-16T00:40:36.295Z,22.66
2017-02-16T00:41:16.800Z,22.66
2017-02-16T00:41:57.283Z,22.7
2017-02-16T00:42:37.795Z,22.7
2017-02-16T00:43:18.289Z,22.67
2017-02-16T00:43:58.773Z,22.67
2017-02-16T00:44:39.267Z,22.6
2017-02-16T00:45:19.771Z,22.7
2017-02-16T00:46:00.256Z,22.7
2017-02-16T00:46:40.765Z,22.69
2017-02-16T00:47:21.255Z,22.7
2017-02-16T00:48:01.759Z,22.76
2017-02-16T00:48:42.251Z,22.67
2017-02-16T00:49:22.737Z,22.7
2017-02-16T00:50:03.237Z,22.81
2017-02-16T00:50:43.732Z,22.71
2017-02-16T00:51:24.243Z,22.67
2017-02-16T00:52:04.739Z,22.7
2017-02-16T00:52:45.240Z,22.66
2017-02-16T00:53:25.732Z,22.66
2017-02-16T00:54:06.251Z,22.69
2017-02-16T00:54:46.738Z,22.7
2017-02-16T00:55:27.233Z,22.73
2017-02-16T00:56:07.734Z,22.73
2017-02-16T00:56:48.235Z,22.69
2017-02-16T00:57:28.717Z,22.7
2017-02-16T00:58:09.205Z,22.67
2017-02-16T00:58:49.704Z,22.73
2017-02-16T00:59:30.197Z,22.67
2017-02-16T01:00:10.691Z,22.6
2017-02-16T01:00:51.202Z,22.61
2017-02-16T01:01:31.689Z,22.66
2017-02-16T01:02:12.201Z,22.63
2017-02-16T01:02:52.697Z,22.66
2017-02-16T01:03:33.201Z,22.64
2017-02-16T01:04:13.701Z,22.6
2017-02-16T01:04:54.199Z,22.64
2017-02-16T01:05:34.678Z,22.67
2017-02-16T01:06:15.191Z,22.6
2017-02-16T01:06:55.685Z,22.6
2017-02-16T01:07:36.176Z,22.63
2017-02-16T01:08:16.679Z,22.66
2017-02-16T01:08:57.171Z,22.64
2017-02-16T01:09:37.672Z,22.64
2017-02-16T01:10:18.159Z,22.61
2017-02-16T01:10:58.661Z,22.59
2017-02-16T01:11:39.166Z,22.69
2017-02-16T01:12:19.665Z,22.63
2017-02-16T01:13:00.164Z,22.61
2017-02-16T01:13:40.670Z,22.61
2017-02-16T01:14:21.171Z,22.59
2017-02-16T01:15:01.672Z,22.61
2017-02-16T01:15:42.164Z,22.63
2017-02-16T01:16:22.671Z,22.57
2017-02-16T01:17:03.166Z,22.7
2017-02-16T01:17:43.667Z,22.67
2017-02-16T01:18:24.148Z,22.6
2017-02-16T01:19:04.641Z,22.61
2017-02-16T01:19:45.127Z,22.59
2017-02-16T01:20:25.627Z,22.59
2017-02-16T01:21:06.109Z,22.59
2017-02-16T01:21:46.613Z,22.64
2017-02-16T01:22:27.108Z,22.61
2017-02-16T01:23:07.598Z,22.67
2017-02-16T01:23:48.099Z,22.73
2017-02-16T01:24:28.605Z,22.64
2017-02-16T01:25:09.108Z,22.64
2017-02-16T01:25:49.647Z,22.67
2017-02-16T01:26:30.147Z,22.67
2017-02-16T01:27:10.645Z,22.66
2017-02-16T01:27:51.144Z,22.64
2017-02-16T01:28:31.830Z,22.7
2017-02-16T01:29:12.315Z,22.7
2017-02-16T01:29:52.819Z,22.7
2017-02-16T01:30:33.309Z,22.63
2017-02-16T01:31:13.800Z,22.54
2017-02-16T01:31:54.311Z,22.6
2017-02-16T01:32:34.804Z,22.59
2017-02-16T01:33:15.300Z,22.6
2017-02-16T01:33:55.791Z,22.57
2017-02-16T01:34:36.301Z,22.57
2017-02-16T01:35:16.785Z,22.63
2017-02-16T01:35:57.277Z,22.6
2017-02-16T01:36:37.770Z,22.61
2017-02-16T01:37:18.271Z,22.57
2017-02-16T01:37:58.765Z,22.64
2017-02-16T01:38:39.263Z,22.61
2017-02-16T01:39:19.749Z,22.6
2017-02-16T01:40:00.249Z,22.55
2017-02-16T01:40:40.741Z,22.64
2017-02-16T01:41:21.233Z,22.6
2017-02-16T01:42:01.735Z,22.67
2017-02-16T01:42:42.227Z,22.64
2017-02-16T01:43:22.717Z,22.66
2017-02-16T01:44:03.214Z,22.55
2017-02-16T01:44:43.708Z,22.6
2017-02-16T01:45:24.198Z,22.66
2017-02-16T01:46:04.714Z,22.57
2017-02-16T01:46:45.213Z,22.64
2017-02-16T01:47:25.706Z,22.6
2017-02-16T01:48:06.197Z,22.61
2017-02-16T01:48:46.706Z,22.57
2017-02-16T01:49:27.186Z,22.59
2017-02-16T01:50:07.685Z,22.63
2017-02-16T01:50:48.187Z,22.61
2017-02-16T01:51:28.689Z,22.55
2017-02-16T01:52:09.185Z,22.6
2017-02-16T01:52:49.682Z,22.59
2017-02-16T01:53:30.183Z,22.6
2017-02-16T01:54:10.682Z,22.61
2017-02-16T01:54:51.178Z,22.61
2017-02-16T01:55:31.669Z,22.61
2017-02-16T01:56:12.184Z,22.63
2017-02-16T01:56:52.669Z,22.67
2017-02-16T01:57:33.176Z,22.61
2017-02-16T01:58:13.678Z,22.61
2017-02-16T01:58:54.391Z,22.61
2017-02-16T01:59:34.886Z,22.63
2017-02-16T02:00:15.379Z,22.64
2017-02-16T02:00:55.872Z,22.66
2017-02-16T02:01:36.367Z,22.61
2017-02-16T02:02:16.870Z,22.69
2017-02-16T02:02:57.373Z,22.71
2017-02-16T02:03:37.855Z,22.75
2017-02-16T02:04:18.350Z,22.71
2017-02-16T02:04:58.838Z,22.7
2017-02-16T02:05:39.346Z,22.67
2017-02-16T02:06:19.830Z,22.71
2017-02-16T02:07:00.311Z,22.64
2017-02-16T02:07:40.799Z,22.64
2017-02-16T02:08:21.293Z,22.69
2017-02-16T02:09:01.788Z,22.61
2017-02-16T02:09:42.270Z,22.59
2017-02-16T02:10:22.767Z,22.6
2017-02-16T02:11:03.270Z,22.63
2017-02-16T02:11:43.768Z,22.57
2017-02-16T02:12:24.262Z,22.59
2017-02-16T02:13:04.758Z,22.57
2017-02-16T02:13:45.247Z,22.61
2017-02-16T02:14:25.764Z,22.59
2017-02-16T02:15:06.259Z,22.61
2017-02-16T02:15:46.748Z,22.64
2017-02-16T02:16:27.235Z,22.61
2017-02-16T02:17:07.723Z,22.59
2017-02-16T02:17:48.216Z,22.6
2017-02-16T02:18:28.714Z,22.61
2017-02-16T02:19:09.211Z,22.6
2017-02-16T02:19:49.705Z,22.63
2017-02-16T02:20:30.197Z,22.63
2017-02-16T02:21:10.707Z,22.59
2017-02-16T02:21:51.195Z,22.61
2017-02-16T02:22:31.689Z,22.6
2017-02-16T02:23:12.178Z,22.64
2017-02-16T02:23:52.672Z,22.61
2017-02-16T02:24:33.174Z,22.66
2017-02-16T02:25:13.670Z,22.6
2017-02-16T02:25:54.156Z,22.59
2017-02-16T02:26:34.651Z,22.61
2017-02-16T02:27:15.151Z,22.55
2017-02-16T02:27:55.655Z,22.63
2017-02-16T02:28:36.141Z,22.59
2017-02-16T02:29:16.651Z,22.59
2017-02-16T02:29:57.147Z,22.61
2017-02-16T02:30:37.640Z,22.55
2017-02-16T02:31:18.135Z,22.64
2017-02-16T02:31:58.637Z,22.64
2017-02-16T02:32:39.141Z,22.61
2017-02-16T02:33:19.641Z,22.6
2017-02-16T02:34:00.145Z,22.6
2017-02-16T02:34:40.629Z,22.61
2017-02-16T02:35:21.116Z,22.61
2017-02-16T02:36:01.613Z,22.61
2017-02-16T02:36:42.106Z,22.63
2017-02-16T02:37:22.595Z,22.59
2017-02-16T02:38:03.092Z,22.66
2017-02-16T02:38:43.592Z,22.6
2017-02-16T02:39:24.090Z,22.6
2017-02-16T02:40:04.591Z,22.59
2017-02-16T02:40:45.070Z,22.59
2017-02-16T02:41:25.561Z,22.61
2017-02-16T02:42:06.058Z,22.6
2017-02-16T02:42:46.551Z,22.6
2017-02-16T02:43:27.034Z,22.63
2017-02-16T02:44:07.524Z,22.64
2017-02-16T02:44:48.014Z,22.63
2017-02-16T02:45:28.506Z,22.63
2017-02-16T02:46:09.003Z,22.61
2017-02-16T02:46:49.494Z,22.61
2017-02-16T02:47:30.000Z,22.59
2017-02-16T02:48:10.500Z,22.59
2017-02-16T02:48:50.996Z,22.64
2017-02-16T02:49:31.483Z,22.6
2017-02-16T02:50:11.980Z,22.61
2017-02-16T02:50:52.473Z,22.61
2017-02-16T02:51:32.970Z,22.61
2017-02-16T02:52:13.475Z,22.61
2017-02-16T02:52:53.959Z,22.61
2017-02-16T02:53:34.469Z,22.6
2017-02-16T02:54:14.955Z,22.59
2017-02-16T02:54:55.446Z,22.6
2017-02-16T02:55:35.931Z,22.61
2017-02-16T02:56:16.444Z,22.59
2017-02-16T02:56:56.940Z,22.63
2017-02-16T02:57:37.434Z,22.6
2017-02-16T02:58:17.923Z,22.54
2017-02-16T02:58:58.428Z,22.63
2017-02-16T02:59:38.915Z,22.57
2017-02-16T03:01:51.722Z,22.59
2017-02-16T03:02:32.203Z,22.64
2017-02-16T03:03:12.695Z,22.52
2017-02-16T03:03:53.183Z,22.61
2017-02-16T03:04:33.677Z,22.61
2017-02-16T03:05:14.388Z,22.57
2017-02-16T03:05:54.884Z,22.61
2017-02-16T03:06:35.377Z,22.57
2017-02-16T03:07:15.877Z,22.61
2017-02-16T03:07:56.370Z,22.61
2017-02-16T03:08:36.874Z,22.6
2017-02-16T03:09:17.375Z,22.55
2017-02-16T03:09:57.863Z,22.64
2017-02-16T03:10:38.353Z,22.6
2017-02-16T03:11:18.847Z,22.6
2017-02-16T03:11:59.340Z,22.64
2017-02-16T03:12:39.831Z,22.55
2017-02-16T03:13:20.321Z,22.63
2017-02-16T03:14:00.818Z,22.57
2017-02-16T03:14:41.305Z,22.59
2017-02-16T03:15:21.811Z,22.59
2017-02-16T03:16:02.306Z,22.6
2017-02-16T03:16:42.793Z,22.54
2017-02-16T03:17:23.279Z,22.57
2017-02-16T03:18:03.785Z,22.54
2017-02-16T03:18:44.261Z,22.6
2017-02-16T03:19:24.758Z,22.54
2017-02-16T03:20:05.254Z,22.55
2017-02-16T03:20:45.739Z,22.55
2017-02-16T03:21:26.234Z,22.59
2017-02-16T03:22:06.730Z,22.61
2017-02-16T03:22:47.228Z,22.6
2017-02-16T03:23:27.714Z,22.61
2017-02-16T03:24:08.202Z,22.54
2017-02-16T03:24:48.699Z,22.59
2017-02-16T03:25:29.191Z,22.6
2017-02-16T03:26:09.683Z,22.6
2017-02-16T03:26:50.172Z,22.6
2017-02-16T03:27:30.671Z,22.61
2017-02-16T03:28:11.162Z,22.6
2017-02-16T03:28:51.657Z,22.61
2017-02-16T03:29:32.149Z,22.54
2017-02-16T03:30:12.641Z,22.57
2017-02-16T03:30:53.149Z,22.63
2017-02-16T03:31:33.641Z,22.59
2017-02-16T03:32:14.150Z,22.6
2017-02-16T03:32:54.645Z,22.57
2017-02-16T03:33:35.147Z,22.61
2017-02-16T03:34:15.646Z,22.6
2017-02-16T03:34:56.145Z,22.59
2017-02-16T03:35:36.637Z,22.61
2017-02-16T03:36:17.135Z,22.6
2017-02-16T03:36:57.638Z,22.63
2017-02-16T03:37:38.149Z,22.6
2017-02-16T03:38:18.640Z,22.54
2017-02-16T03:38:59.130Z,22.57
2017-02-16T03:39:39.618Z,22.57
2017-02-16T03:40:20.110Z,22.64
2017-02-16T03:41:00.591Z,22.6
2017-02-16T03:41:41.092Z,22.57
2017-02-16T03:42:21.579Z,22.6
2017-02-16T03:43:02.084Z,22.57
2017-02-16T03:43:42.587Z,22.61
2017-02-16T03:44:23.072Z,22.63
2017-02-16T03:45:03.560Z,22.55
2017-02-16T03:45:44.055Z,22.64
2017-02-16T03:46:24.558Z,22.57
2017-02-16T03:47:05.044Z,22.6
2017-02-16T03:47:45.535Z,22.57
2017-02-16T03:48:26.024Z,22.67
2017-02-16T03:49:06.519Z,22.55
2017-02-16T03:49:47.007Z,22.64
2017-02-16T03:50:27.619Z,22.55
2017-02-16T03:51:08.105Z,22.63
2017-02-16T03:51:48.598Z,22.55
2017-02-16T03:52:29.098Z,22.59
2017-02-16T03:53:09.579Z,22.64
2017-02-16T03:53:50.071Z,22.6
2017-02-16T03:54:30.581Z,22.6
2017-02-16T03:55:11.073Z,22.6
2017-02-16T03:55:51.568Z,22.64
2017-02-16T03:56:32.059Z,22.61
2017-02-16T03:57:12.569Z,22.6
2017-02-16T03:57:53.064Z,22.61
2017-02-16T03:58:33.563Z,22.6
2017-02-16T03:59:14.061Z,22.61
2017-02-16T03:59:54.546Z,22.6
2017-02-16T04:00:35.039Z,22.6
2017-02-16T04:01:15.545Z,22.59
2017-02-16T04:01:56.042Z,22.61
2017-02-16T04:02:36.540Z,22.52
2017-02-16T04:03:17.029Z,22.6
2017-02-16T04:03:57.533Z,22.6
2017-02-16T04:04:38.016Z,22.61
2017-02-16T04:05:18.503Z,22.61
2017-02-16T04:05:59.012Z,22.55
2017-02-16T04:06:39.513Z,22.59
2017-02-16T04:07:20.006Z,22.64
2017-02-16T04:08:00.508Z,22.6
2017-02-16T04:08:41.015Z,22.6
2017-02-16T04:09:21.513Z,22.63
2017-02-16T04:10:02.010Z,22.61
2017-02-16T04:10:42.499Z,22.59
2017-02-16T04:11:22.991Z,22.64
2017-02-16T04:12:03.482Z,22.63
2017-02-16T04:12:43.980Z,22.59
2017-02-16T04:13:24.464Z,22.61
2017-02-16T04:14:04.951Z,22.63
2017-02-16T04:14:45.449Z,22.61
2017-02-16T04:15:25.946Z,22.64
2017-02-16T04:16:06.428Z,22.61
2017-02-16T04:16:46.924Z,22.64
2017-02-16T04:17:27.425Z,22.64
2017-02-16T04:18:07.914Z,22.61
2017-02-16T04:18:48.404Z,22.63
2017-02-16T04:19:28.900Z,22.61
2017-02-16T04:20:09.388Z,22.59
2017-02-16T04:20:49.875Z,22.57
2017-02-16T04:21:30.366Z,22.59
2017-02-16T04:22:10.867Z,22.55
2017-02-16T04:22:51.344Z,22.59
2017-02-16T04:23:31.834Z,22.61
2017-02-16T04:24:12.334Z,22.59
2017-02-16T04:24:52.829Z,22.6
2017-02-16T04:25:33.317Z,22.59
2017-02-16T04:26:13.811Z,22.61
2017-02-16T04:26:54.309Z,22.6
2017-02-16T04:27:34.793Z,22.61
2017-02-16T04:28:15.286Z,22.61
2017-02-16T04:28:55.793Z,22.6
2017-02-16T04:29:36.290Z,22.51
2017-02-16T04:30:16.841Z,22.63
2017-02-16T04:30:57.523Z,22.64
2017-02-16T04:31:38.039Z,22.63
2017-02-16T04:32:18.539Z,22.63
2017-02-16T04:32:59.032Z,22.64
2017-02-16T04:33:39.531Z,22.57
2017-02-16T04:34:20.029Z,22.54
2017-02-16T04:35:00.513Z,22.64
2017-02-16T04:35:41.008Z,22.61
2017-02-16T04:36:21.510Z,22.6
2017-02-16T04:37:01.992Z,22.59
2017-02-16T04:37:42.486Z,22.61
2017-02-16T04:38:22.982Z,22.6
2017-02-16T04:39:03.470Z,22.64
2017-02-16T04:39:43.955Z,22.64
2017-02-16T04:40:24.450Z,22.6
2017-02-16T04:41:04.937Z,22.63
2017-02-16T04:41:45.421Z,22.61
2017-02-16T04:42:25.920Z,22.57
2017-02-16T04:43:06.425Z,22.63
2017-02-16T04:43:46.915Z,22.6
2017-02-16T04:44:27.406Z,22.59
2017-02-16T04:45:07.900Z,22.6
2017-02-16T04:45:48.397Z,22.6
2017-02-16T04:46:28.884Z,22.55
2017-02-16T04:47:09.375Z,22.6
2017-02-16T04:47:49.866Z,22.61
2017-02-16T04:48:30.363Z,22.61
2017-02-16T04:49:10.846Z,22.61
2017-02-16T04:49:51.342Z,22.55
2017-02-16T04:50:31.825Z,22.57
2017-02-16T04:51:12.320Z,22.66
2017-02-16T04:51:52.818Z,22.6
2017-02-16T04:52:33.315Z,22.61
2017-02-16T04:53:13.808Z,22.6
2017-02-16T04:53:54.295Z,22.6
2017-02-16T04:54:34.793Z,22.66
2017-02-16T04:55:15.286Z,22.73
2017-02-16T04:55:55.765Z,22.73
2017-02-16T04:56:36.260Z,22.61
2017-02-16T04:57:16.757Z,22.61
2017-02-16T04:57:58.000Z,22.61
2017-02-16T04:58:38.481Z,22.61
2017-02-16T04:59:18.967Z,22.64
2017-02-16T04:59:59.454Z,22.59
2017-02-16T05:00:39.947Z,22.64
2017-02-16T05:01:20.450Z,22.66
2017-02-16T05:02:00.933Z,22.64
2017-02-16T05:02:41.427Z,22.64
2017-02-16T05:03:21.920Z,22.59
2017-02-16T05:04:02.408Z,22.63
2017-02-16T05:04:42.900Z,22.59
2017-02-16T05:05:23.394Z,22.59
2017-02-16T05:06:03.886Z,22.57
2017-02-16T05:06:44.563Z,22.61
2017-02-16T05:07:25.072Z,22.71
2017-02-16T05:08:05.570Z,22.6
2017-02-16T05:08:46.052Z,22.59
2017-02-16T05:09:26.545Z,22.6
2017-02-16T05:10:07.023Z,22.75
2017-02-16T05:10:47.512Z,22.59
2017-02-16T05:11:28.007Z,22.54
2017-02-16T05:12:08.502Z,22.64
2017-02-16T05:12:48.990Z,22.6
2017-02-16T05:13:29.483Z,22.59
2017-02-16T05:14:09.987Z,22.55
2017-02-16T05:14:50.464Z,22.6
2017-02-16T05:15:30.955Z,22.63
2017-02-16T05:16:11.444Z,22.61
2017-02-16T05:16:51.936Z,22.59
2017-02-16T05:17:32.428Z,22.63
2017-02-16T05:18:12.918Z,22.57
2017-02-16T05:18:53.410Z,22.57
2017-02-16T05:19:33.906Z,22.61
2017-02-16T05:20:14.397Z,22.6
2017-02-16T05:20:54.905Z,22.69
2017-02-16T05:21:35.394Z,22.63
2017-02-16T05:22:15.907Z,22.63
2017-02-16T05:22:56.399Z,22.64
2017-02-16T05:23:36.896Z,22.66
2017-02-16T05:24:17.404Z,22.64
2017-02-16T05:24:57.906Z,22.63
2017-02-16T05:25:38.400Z,22.67
2017-02-16T05:26:18.890Z,22.66
2017-02-16T05:26:59.376Z,22.64
2017-02-16T05:27:39.877Z,22.63
2017-02-16T05:28:20.362Z,22.63
2017-02-16T05:29:00.855Z,22.67
2017-02-16T05:29:41.344Z,22.69
2017-02-16T05:30:21.850Z,22.6
2017-02-16T05:31:02.349Z,22.59
2017-02-16T05:31:42.837Z,22.64
2017-02-16T05:32:23.338Z,22.64
2017-02-16T05:33:03.830Z,22.63
2017-02-16T05:33:44.320Z,22.67
2017-02-16T05:34:24.815Z,22.63
2017-02-16T05:35:05.317Z,22.63
2017-02-16T05:35:45.800Z,22.61
2017-02-16T05:36:26.298Z,22.6
2017-02-16T05:37:06.902Z,22.61
2017-02-16T05:37:47.397Z,22.67
2017-02-16T05:38:27.890Z,22.75
2017-02-16T05:39:08.376Z,22.64
2017-02-16T05:39:48.880Z,22.71
2017-02-16T05:40:29.391Z,22.69
2017-02-16T05:41:09.887Z,22.73
2017-02-16T05:41:50.372Z,22.76
2017-02-16T05:42:30.861Z,22.75
2017-02-16T05:43:11.359Z,22.73
2017-02-16T05:43:51.860Z,22.69
2017-02-16T05:44:32.354Z,22.67
2017-02-16T05:45:12.856Z,22.69
2017-02-16T05:45:53.346Z,22.7
2017-02-16T05:46:33.836Z,22.67
2017-02-16T05:47:14.333Z,22.67
2017-02-16T05:47:54.826Z,22.6
2017-02-16T05:48:35.333Z,22.64
2017-02-16T05:49:15.832Z,22.61
2017-02-16T05:49:56.332Z,22.64
2017-02-16T05:50:36.819Z,22.69
2017-02-16T05:51:17.305Z,22.61
2017-02-16T05:51:57.856Z,22.64
2017-02-16T05:52:38.352Z,22.66
2017-02-16T05:53:18.845Z,22.71
2017-02-16T05:53:59.339Z,22.61
2017-02-16T05:54:39.827Z,22.61
2017-02-16T05:55:20.326Z,22.66
2017-02-16T05:56:00.816Z,22.61
2017-02-16T05:56:41.316Z,22.61
2017-02-16T05:57:21.811Z,22.66
2017-02-16T05:58:02.318Z,22.57
2017-02-16T05:58:42.820Z,22.67
2017-02-16T05:59:23.320Z,22.6
2017-02-16T06:00:03.816Z,22.69
2017-02-16T06:00:44.318Z,22.64
2017-02-16T06:01:24.810Z,22.64
2017-02-16T06:02:05.304Z,22.59
2017-02-16T06:02:45.812Z,22.63
2017-02-16T06:03:26.393Z,22.59
2017-02-16T06:04:06.889Z,22.59
2017-02-16T06:04:47.390Z,22.61
2017-02-16T06:05:27.871Z,22.63
2017-02-16T06:06:08.386Z,22.63
2017-02-16T06:06:48.868Z,22.63
2017-02-16T06:07:29.355Z,22.69
2017-02-16T06:08:09.865Z,22.66
2017-02-16T06:08:50.357Z,22.67
2017-02-16T06:09:30.854Z,22.55
2017-02-16T06:10:11.359Z,22.6
2017-02-16T06:10:51.864Z,22.64
2017-02-16T06:11:32.354Z,22.61
2017-02-16T06:12:12.850Z,22.63
2017-02-16T06:12:53.361Z,22.63
2017-02-16T06:13:33.853Z,22.61
2017-02-16T06:14:14.352Z,22.63
2017-02-16T06:14:54.850Z,22.63
2017-02-16T06:15:35.346Z,22.57
2017-02-16T06:16:15.851Z,22.61
2017-02-16T06:16:56.348Z,22.63
2017-02-16T06:17:36.850Z,22.61
2017-02-16T06:18:17.356Z,22.66
2017-02-16T06:18:57.854Z,22.64
2017-02-16T06:19:38.346Z,22.63
2017-02-16T06:20:18.848Z,22.55
2017-02-16T06:20:59.343Z,22.6
2017-02-16T06:21:39.836Z,22.66
2017-02-16T06:22:20.352Z,22.63
2017-02-16T06:23:00.856Z,22.63
2017-02-16T06:23:42.449Z,22.59
2017-02-16T06:24:21.979Z,22.57
2017-02-16T06:25:02.480Z,22.61
2017-02-16T06:25:42.965Z,22.64
2017-02-16T06:26:23.476Z,22.57
2017-02-16T06:27:03.970Z,22.61
2017-02-16T06:27:44.475Z,22.57
2017-02-16T06:28:24.958Z,22.59
2017-02-16T06:29:05.463Z,22.59
2017-02-16T06:29:45.950Z,22.63
2017-02-16T06:30:26.471Z,22.57
2017-02-16T06:31:06.947Z,22.6
2017-02-16T06:31:47.445Z,22.59
2017-02-16T06:32:27.947Z,22.64
2017-02-16T06:33:08.447Z,22.6
2017-02-16T06:33:48.941Z,22.67
2017-02-16T06:34:29.440Z,22.66
2017-02-16T06:35:09.947Z,22.61
2017-02-16T06:35:50.441Z,22.63
2017-02-16T06:36:30.941Z,22.61
2017-02-16T06:37:11.439Z,22.63
2017-02-16T06:37:52.010Z,22.61
2017-02-16T06:38:32.491Z,22.69
2017-02-16T06:39:12.990Z,22.73
2017-02-16T06:39:53.492Z,22.67
2017-02-16T06:40:33.991Z,22.73
2017-02-16T06:41:14.490Z,22.71
2017-02-16T06:41:54.977Z,22.66
2017-02-16T06:42:35.471Z,22.71
2017-02-16T06:43:15.958Z,22.67
2017-02-16T06:43:56.456Z,22.67
2017-02-16T06:44:36.936Z,22.71
2017-02-16T06:45:17.426Z,22.61
2017-02-16T06:45:57.928Z,22.67
2017-02-16T06:46:38.431Z,22.69
2017-02-16T06:47:18.932Z,22.67
2017-02-16T06:47:59.423Z,22.71
2017-02-16T06:48:39.922Z,22.7
2017-02-16T06:49:20.423Z,22.7
2017-02-16T06:50:00.915Z,22.7
2017-02-16T06:50:41.416Z,22.69
2017-02-16T06:51:21.902Z,22.7
2017-02-16T06:52:02.399Z,22.73
2017-02-16T06:52:42.900Z,22.67
2017-02-16T06:53:23.402Z,22.76
2017-02-16T06:54:03.899Z,22.75
2017-02-16T06:54:44.388Z,22.66
2017-02-16T06:55:24.898Z,22.73
2017-02-16T06:56:05.385Z,22.78
2017-02-16T06:56:45.877Z,22.64
2017-02-16T06:57:26.363Z,22.66
2017-02-16T06:58:06.841Z,22.69
2017-02-16T06:58:47.344Z,22.75
2017-02-16T06:59:27.840Z,22.79
2017-02-16T07:00:08.341Z,22.84
2017-02-16T07:00:48.826Z,22.78
2017-02-16T07:01:29.341Z,22.82
2017-02-16T07:02:09.827Z,22.79
2017-02-16T07:02:50.317Z,22.92
2017-02-16T07:03:30.815Z,22.78
2017-02-16T07:04:11.297Z,22.89
2017-02-16T07:04:51.805Z,22.85
2017-02-16T07:05:32.273Z,22.94
2017-02-16T07:06:12.772Z,22.94
2017-02-16T07:06:53.265Z,22.94
2017-02-16T07:07:33.758Z,22.85
2017-02-16T07:08:14.237Z,22.99
2017-02-16T07:08:54.966Z,23
2017-02-16T07:09:35.461Z,22.89
2017-02-16T07:10:15.955Z,22.92
2017-02-16T07:10:56.454Z,23.03
2017-02-16T07:11:36.960Z,23.01
2017-02-16T07:12:17.462Z,23.01
2017-02-16T07:12:57.986Z,23.01
2017-02-16T07:13:38.465Z,23
2017-02-16T07:14:19.026Z,23.1
2017-02-16T07:14:59.540Z,23.09
2017-02-16T07:15:40.021Z,23.03
2017-02-16T07:16:20.579Z,23.07
2017-02-16T07:17:01.078Z,23.06
2017-02-16T07:17:41.571Z,23.12
2017-02-16T07:18:22.065Z,23.15
2017-02-16T07:19:02.563Z,23.18
2017-02-16T07:19:43.055Z,23.21
2017-02-16T07:20:23.555Z,23.18
2017-02-16T07:21:04.048Z,23.24
2017-02-16T07:21:44.549Z,23.34
2017-02-16T07:22:25.129Z,23.22
2017-02-16T07:23:05.630Z,23.25
2017-02-16T07:23:46.126Z,23.37
2017-02-16T07:24:26.633Z,23.4
2017-02-16T07:25:07.111Z,23.4
2017-02-16T07:25:47.640Z,23.38
2017-02-16T07:26:28.108Z,23.38
2017-02-16T07:27:08.606Z,23.38
2017-02-16T07:27:49.098Z,23.4
2017-02-16T07:28:29.604Z,23.34
2017-02-16T07:29:10.141Z,23.45
2017-02-16T07:29:50.633Z,23.4
2017-02-16T07:30:31.142Z,23.41
2017-02-16T07:31:12.482Z,23.55
2017-02-16T07:31:52.148Z,23.53
2017-02-16T07:32:32.645Z,23.53
2017-02-16T07:33:13.133Z,23.56
2017-02-16T07:33:53.629Z,23.63
2017-02-16T07:34:34.130Z,23.62
2017-02-16T07:35:14.623Z,23.64
2017-02-16T07:35:55.110Z,23.66
2017-02-16T07:36:35.635Z,23.72
2017-02-16T07:37:16.129Z,23.78
2017-02-16T07:37:56.627Z,23.81
2017-02-16T07:38:37.124Z,23.78
2017-02-16T07:39:17.618Z,23.77
2017-02-16T07:39:58.111Z,23.9
2017-02-16T07:40:38.604Z,23.93
2017-02-16T07:41:19.079Z,23.93
2017-02-16T07:41:59.591Z,23.89
2017-02-16T07:42:40.145Z,23.89
2017-02-16T07:43:20.638Z,23.87
2017-02-16T07:44:01.127Z,23.87
2017-02-16T07:44:41.628Z,23.87
2017-02-16T07:45:22.139Z,23.85
2017-02-16T07:46:02.640Z,23.84
2017-02-16T07:46:43.140Z,23.87
2017-02-16T07:47:23.639Z,23.89
2017-02-16T07:48:04.185Z,23.89
2017-02-16T07:48:45.512Z,23.89
2017-02-16T07:49:25.423Z,23.89
2017-02-16T07:50:06.018Z,23.85
2017-02-16T07:50:46.484Z,23.89
2017-02-16T07:51:26.980Z,24
2017-02-16T07:52:07.509Z,23.97
2017-02-16T07:52:48.084Z,23.93
2017-02-16T07:53:28.584Z,24.03
2017-02-16T07:54:09.071Z,24.02
2017-02-16T07:54:49.588Z,24.04
2017-02-16T07:55:30.101Z,24.12
2017-02-16T07:56:10.608Z,24.09
2017-02-16T07:56:51.763Z,24.12
2017-02-16T07:57:32.270Z,24.08
2017-02-16T07:58:12.754Z,24.17
2017-02-16T07:58:53.250Z,24.22
2017-02-16T07:59:33.756Z,24.24
2017-02-16T08:00:14.250Z,24.26
2017-02-16T08:00:54.747Z,24.32
2017-02-16T08:01:35.233Z,24.4
2017-02-16T08:02:15.723Z,24.26
2017-02-16T08:02:56.232Z,24.39
2017-02-16T08:03:36.726Z,24.4
2017-02-16T08:04:17.215Z,24.46
2017-02-16T08:04:57.716Z,24.4
2017-02-16T08:05:38.185Z,24.45
2017-02-16T08:06:18.694Z,24.56
2017-02-16T08:06:59.192Z,24.52
2017-02-16T08:07:39.678Z,24.55
2017-02-16T08:08:20.174Z,24.55
2017-02-16T08:09:00.687Z,24.61
2017-02-16T08:09:41.201Z,24.59
2017-02-16T08:10:21.700Z,24.66
2017-02-16T08:11:02.189Z,24.58
2017-02-16T08:11:42.704Z,24.66
2017-02-16T08:12:23.193Z,24.7
2017-02-16T08:13:03.688Z,24.8
2017-02-16T08:13:44.172Z,24.77
2017-02-16T08:14:24.685Z,24.82
2017-02-16T08:15:05.179Z,24.78
2017-02-16T08:15:45.655Z,24.78
2017-02-16T08:16:26.158Z,24.96
2017-02-16T08:17:06.657Z,24.92
2017-02-16T08:17:47.152Z,24.85
2017-02-16T08:18:27.647Z,24.9
2017-02-16T08:19:08.152Z,24.85
2017-02-16T08:19:48.642Z,24.77
2017-02-16T08:20:29.151Z,24.89
2017-02-16T08:21:09.639Z,24.9
2017-02-16T08:21:50.148Z,24.92
2017-02-16T08:22:30.623Z,24.94
2017-02-16T08:23:11.109Z,24.86
2017-02-16T08:23:51.603Z,24.94
2017-02-16T08:24:32.078Z,24.89
2017-02-16T08:25:12.573Z,24.9
2017-02-16T08:25:53.072Z,24.87
2017-02-16T08:26:33.570Z,25
2017-02-16T08:27:14.058Z,25
2017-02-16T08:27:54.562Z,24.93
2017-02-16T08:28:35.055Z,24.96
2017-02-16T08:29:15.565Z,24.92
2017-02-16T08:29:56.069Z,24.96
2017-02-16T08:30:36.567Z,24.9
2017-02-16T08:31:17.064Z,24.77
2017-02-16T08:31:57.553Z,24.94
2017-02-16T08:32:38.059Z,24.94
2017-02-16T08:33:18.569Z,24.9
2017-02-16T08:33:59.064Z,24.89
2017-02-16T08:34:39.831Z,24.92
2017-02-16T08:35:20.264Z,24.85
2017-02-16T08:36:00.767Z,24.9
2017-02-16T08:36:41.270Z,24.86
2017-02-16T08:37:21.760Z,24.87
2017-02-16T08:38:02.268Z,24.92
2017-02-16T08:38:42.753Z,25.02
2017-02-16T08:39:23.273Z,24.97
2017-02-16T08:40:03.792Z,24.94
2017-02-16T08:40:44.268Z,24.93
2017-02-16T08:41:24.764Z,25.02
2017-02-16T08:42:05.260Z,25.01
2017-02-16T08:42:45.746Z,25.02
2017-02-16T08:43:26.237Z,25.04
2017-02-16T08:44:06.728Z,24.97
2017-02-16T08:44:47.232Z,25.12
2017-02-16T08:45:27.717Z,25.05
2017-02-16T08:46:08.211Z,25.07